Time;durP1;ratioP1;P1;durP2;ratioP2;P2;SDS_P1;SDS_P2;PMS_P1;PMS_P2;Temp;Humidity;BMP_temperature;BMP_pressure;BME280_temperature;BME280_humidity;BME280_pressure;Samples;Min_cycle;Max_cycle;Signal;HPM_P1;HPM_P2
2022/08/12 00:43:27;;;;;;;3.63;3.05;;;;;;;;;;4991622;28;20046;-60
2022/08/12 00:48:38;;;;;;;9.85;3.78;;;;;;;;;;4991402;28;20617;-60
2022/08/12 00:51:06;;;;;;;7.15;3.13;;;;;;;;;;4991794;28;20052;-60
2022/08/12 00:53:33;;;;;;;5.13;3.20;;;;;;;;;;4991384;28;20058;-60
2022/08/12 00:55:59;;;;;;;4.95;3.30;;;;;;;;;;4991646;28;20088;-60
2022/08/12 00:58:30;;;;;;;4.90;3.15;;;;;;;;;;4991461;28;20121;-60
2022/08/12 01:01:00;;;;;;;3.55;3.25;;;;;;;;;;4990926;28;20050;-60
2022/08/12 01:11:27;;;;;;;4.57;3.10;;;;;;;;;;4973787;28;20078;-60
2022/08/12 01:11:45;;;;;;;5.13;3.25;;;;;;;;;;4991293;28;20046;-60
2022/08/12 01:14:11;;;;;;;4.70;3.25;;;;;;;;;;4991526;28;20049;-60
2022/08/12 01:16:37;;;;;;;5.25;3.22;;;;;;;;;;4990481;28;20109;-60
2022/08/12 01:19:04;;;;;;;4.78;2.78;;;;;;;;;;4991570;28;20450;-60
2022/08/12 01:21:32;;;;;;;4.55;3.15;;;;;;;;;;4991479;28;20434;-60
2022/08/12 01:24:08;;;;;;;8.93;3.53;;;;;;;;;;4990879;28;20077;-60
2022/08/12 01:26:34;;;;;;;4.63;3.50;;;;;;;;;;4991464;28;20042;-60
2022/08/12 01:29:02;;;;;;;5.20;3.00;;;;;;;;;;4991139;28;20121;-60
2022/08/12 01:31:28;;;;;;;5.40;3.30;;;;;;;;;;4973120;28;20393;-60
2022/08/12 01:33:58;;;;;;;4.70;2.97;;;;;;;;;;4991278;28;20133;-60
2022/08/12 01:36:27;;;;;;;6.57;3.45;;;;;;;;;;4991218;28;20492;-60
2022/08/12 01:38:58;;;;;;;6.70;3.28;;;;;;;;;;4990846;28;20468;-60
2022/08/12 01:41:28;;;;;;;5.97;3.72;;;;;;;;;;4991258;28;20044;-60
2022/08/12 01:43:55;;;;;;;5.00;3.42;;;;;;;;;;4991087;28;20097;-60
2022/08/12 01:46:24;;;;;;;4.78;3.75;;;;;;;;;;4990299;28;20061;-60
2022/08/12 01:49:10;;;;;;;6.07;3.85;;;;;;;;;;4990649;28;20054;-60
2022/08/12 01:51:41;;;;;;;6.15;4.22;;;;;;;;;;4977177;28;20058;-60
2022/08/12 01:54:12;;;;;;;4.57;3.15;;;;;;;;;;4990758;28;20096;-60
2022/08/12 01:56:47;;;;;;;5.45;3.60;;;;;;;;;;4990862;28;20112;-60
2022/08/12 02:02:03;;;;;;;7.07;3.85;;;;;;;;;;4990558;28;20046;-60
2022/08/12 02:13:33;;;;;;;5.82;3.28;;;;;;;;;;4993991;28;20078;-60
2022/08/12 02:16:03;;;;;;;4.05;3.65;;;;;;;;;;4994023;28;20389;-60
2022/08/12 02:18:42;;;;;;;7.57;3.60;;;;;;;;;;4994409;28;20042;-60
2022/08/12 02:21:18;;;;;;;6.63;3.72;;;;;;;;;;4994486;28;20050;-60
2022/08/12 02:23:44;;;;;;;5.75;3.47;;;;;;;;;;4994011;28;20085;-60
2022/08/12 02:26:12;;;;;;;7.05;3.00;;;;;;;;;;4994415;28;20042;-60
2022/08/12 02:28:38;;;;;;;6.38;3.40;;;;;;;;;;4994212;28;20046;-60
2022/08/12 02:31:05;;;;;;;5.20;3.53;;;;;;;;;;4993867;28;20456;-60
2022/08/12 02:33:33;;;;;;;5.80;3.83;;;;;;;;;;4994241;28;20400;-60
2022/08/12 02:36:02;;;;;;;8.05;3.58;;;;;;;;;;4994257;28;20073;-60
2022/08/12 02:38:30;;;;;;;4.20;3.35;;;;;;;;;;4993739;28;20042;-60
2022/08/12 02:40:57;;;;;;;9.68;3.55;;;;;;;;;;4994209;28;20560;-60
2022/08/12 02:43:30;;;;;;;8.68;4.00;;;;;;;;;;4993939;28;20477;-60
2022/08/12 02:45:59;;;;;;;8.13;4.05;;;;;;;;;;4993361;28;20070;-60
2022/08/12 02:48:30;;;;;;;8.13;3.90;;;;;;;;;;4992973;28;20062;-60
2022/08/12 02:50:57;;;;;;;6.72;4.60;;;;;;;;;;4993342;28;20105;-60
2022/08/12 02:53:24;;;;;;;6.57;4.03;;;;;;;;;;4992887;28;20490;-60
2022/08/12 02:55:50;;;;;;;5.22;4.00;;;;;;;;;;4993013;28;20042;-60
2022/08/12 02:58:16;;;;;;;4.60;3.92;;;;;;;;;;4992947;28;20070;-60
2022/08/12 03:00:43;;;;;;;5.72;4.03;;;;;;;;;;4992943;28;20174;-60
2022/08/12 03:03:11;;;;;;;6.93;4.13;;;;;;;;;;4993457;28;20096;-60
2022/08/12 03:05:53;;;;;;;7.20;4.20;;;;;;;;;;4993363;28;20076;-60
2022/08/12 03:08:20;;;;;;;9.70;4.40;;;;;;;;;;4975629;28;20356;-60
2022/08/12 03:10:47;;;;;;;5.35;4.32;;;;;;;;;;4993465;28;20042;-60
2022/08/12 03:13:14;;;;;;;7.97;4.15;;;;;;;;;;4993460;28;20043;-60
2022/08/12 03:15:41;;;;;;;9.00;4.65;;;;;;;;;;4993130;28;20046;-60
2022/08/12 03:18:27;;;;;;;8.80;4.78;;;;;;;;;;4993358;28;20042;-60
2022/08/12 03:20:53;;;;;;;8.35;4.30;;;;;;;;;;4992895;28;20049;-60
2022/08/12 03:23:21;;;;;;;8.68;4.40;;;;;;;;;;4992449;28;20039;-60
2022/08/12 03:25:50;;;;;;;5.95;4.18;;;;;;;;;;4993204;28;20822;-60
2022/08/12 03:28:49;;;;;;;7.68;4.65;;;;;;;;;;4993219;28;20089;-58
2022/08/12 03:31:06;;;;;;;5.35;4.30;;;;;;;;;;4992110;28;20078;-60
2022/08/12 03:33:37;;;;;;;5.30;4.30;;;;;;;;;;4993172;28;20121;-60
2022/08/12 03:36:05;;;;;;;6.75;4.40;;;;;;;;;;4975486;28;20046;-60
2022/08/12 03:38:35;;;;;;;6.15;4.57;;;;;;;;;;4992576;28;20483;-60
2022/08/12 04:00:49;;;;;;;10.23;5.25;;;;;;;;;;4973112;28;20047;-60
2022/08/12 04:06:00;;;;;;;7.47;4.57;;;;;;;;;;4972768;28;20043;-60
2022/08/12 04:08:26;;;;;;;5.78;4.30;;;;;;;;;;4972786;28;20086;-60
2022/08/12 04:13:39;;;;;;;7.63;4.95;;;;;;;;;;4972441;28;20046;-60
2022/08/12 04:16:08;;;;;;;7.10;4.70;;;;;;;;;;4972933;28;20042;-60
2022/08/12 04:18:35;;;;;;;6.28;4.70;;;;;;;;;;4972906;28;20038;-60
2022/08/12 04:21:02;;;;;;;6.75;5.05;;;;;;;;;;4972468;28;20409;-60
2022/08/12 04:23:29;;;;;;;6.38;4.43;;;;;;;;;;4972842;28;20046;-60
2022/08/12 04:25:55;;;;;;;6.72;4.60;;;;;;;;;;4972609;28;20046;-60
2022/08/12 04:28:26;;;;;;;9.00;5.10;;;;;;;;;;4972274;28;20034;-59
2022/08/12 04:30:52;;;;;;;7.72;4.88;;;;;;;;;;4972559;28;20039;-60
2022/08/12 04:33:19;;;;;;;24.73;5.28;;;;;;;;;;4972451;28;20106;-60
2022/08/12 04:35:46;;;;;;;6.15;4.78;;;;;;;;;;4971442;28;20437;-60
2022/08/12 04:38:12;;;;;;;7.57;4.93;;;;;;;;;;4972331;28;20366;-60
2022/08/12 04:40:38;;;;;;;8.07;4.97;;;;;;;;;;4972365;28;20059;-60
2022/08/12 04:43:05;;;;;;;9.73;5.25;;;;;;;;;;4972075;28;20557;-60
2022/08/12 04:45:33;;;;;;;8.05;5.18;;;;;;;;;;4971801;28;20047;-60
2022/08/12 04:48:00;;;;;;;9.75;5.65;;;;;;;;;;4977097;28;20141;-60
2022/08/12 04:50:27;;;;;;;7.07;4.80;;;;;;;;;;4991390;28;20046;-60
2022/08/12 04:52:54;;;;;;;6.90;5.20;;;;;;;;;;4991747;28;20039;-59
2022/08/12 04:55:22;;;;;;;5.70;5.03;;;;;;;;;;4991640;28;20039;-59
2022/08/12 04:57:48;;;;;;;7.35;5.00;;;;;;;;;;4990756;28;20077;-60
2022/08/12 05:00:15;;;;;;;5.60;4.82;;;;;;;;;;4991570;28;20046;-59
2022/08/12 05:02:41;;;;;;;8.98;4.57;;;;;;;;;;4991559;28;20121;-60
2022/08/12 05:05:13;;;;;;;6.20;4.45;;;;;;;;;;4991047;28;20385;-59
2022/08/12 05:07:39;;;;;;;6.13;3.87;;;;;;;;;;4991400;28;20046;-59
2022/08/12 05:10:06;;;;;;;7.72;4.13;;;;;;;;;;4990964;28;20344;-59
2022/08/12 05:12:37;;;;;;;7.72;4.55;;;;;;;;;;4990821;28;20125;-60
2022/08/12 05:15:04;;;;;;;6.22;4.25;;;;;;;;;;4991463;28;20563;-60
2022/08/12 05:17:30;;;;;;;7.22;4.70;;;;;;;;;;4991213;28;20038;-60
2022/08/12 05:19:56;;;;;;;8.00;4.97;;;;;;;;;;4991116;28;20042;-60
2022/08/12 05:22:22;;;;;;;13.35;4.40;;;;;;;;;;4991274;28;20381;-60
2022/08/12 05:24:48;;;;;;;6.07;4.28;;;;;;;;;;4991241;28;20038;-60
2022/08/12 05:27:14;;;;;;;7.97;4.63;;;;;;;;;;4990489;28;20092;-60
2022/08/12 05:29:41;;;;;;;7.70;4.65;;;;;;;;;;4991086;28;20039;-60
2022/08/12 05:32:07;;;;;;;6.90;4.53;;;;;;;;;;4991256;28;20187;-60
2022/08/12 05:34:33;;;;;;;8.13;5.10;;;;;;;;;;4990833;28;20045;-60
2022/08/12 05:37:00;;;;;;;7.88;3.97;;;;;;;;;;4990817;28;20683;-60
2022/08/12 05:39:26;;;;;;;6.82;4.75;;;;;;;;;;4990984;28;20047;-60
2022/08/12 05:41:52;;;;;;;7.95;4.60;;;;;;;;;;4990931;28;20077;-59
2022/08/12 05:44:18;;;;;;;10.43;4.93;;;;;;;;;;4990724;28;20066;-60
2022/08/12 05:46:44;;;;;;;10.02;4.80;;;;;;;;;;4992301;28;20494;-60
2022/08/12 05:49:10;;;;;;;8.30;4.95;;;;;;;;;;4994649;28;20117;-60
2022/08/12 05:51:37;;;;;;;8.57;5.00;;;;;;;;;;4998280;28;20053;-59
2022/08/12 05:54:04;;;;;;;6.90;4.35;;;;;;;;;;5010570;28;20504;-60
2022/08/12 05:56:32;;;;;;;7.22;4.80;;;;;;;;;;5014129;28;20041;-60
2022/08/12 05:59:00;;;;;;;6.20;5.00;;;;;;;;;;4997840;28;20358;-60
2022/08/12 06:01:26;;;;;;;9.35;4.88;;;;;;;;;;4994621;28;20053;-59
2022/08/12 06:03:53;;;;;;;6.72;4.40;;;;;;;;;;4994388;28;20066;-59
2022/08/12 06:06:19;;;;;;;10.30;5.00;;;;;;;;;;4993629;28;20134;-58
2022/08/12 06:08:52;;;;;;;6.07;4.40;;;;;;;;;;4994410;28;20038;-61
2022/08/12 06:11:24;;;;;;;8.45;4.70;;;;;;;;;;4994273;28;20106;-61
2022/08/12 06:13:51;;;;;;;6.25;4.20;;;;;;;;;;4993965;28;20038;-60
2022/08/12 06:16:18;;;;;;;9.80;5.00;;;;;;;;;;4994369;28;20042;-61
2022/08/12 06:18:44;;;;;;;5.78;4.20;;;;;;;;;;4994041;28;20034;-60
2022/08/12 06:21:13;;;;;;;12.05;4.72;;;;;;;;;;4993680;28;20042;-61
2022/08/12 06:23:39;;;;;;;9.98;3.88;;;;;;;;;;4994224;28;20097;-60
2022/08/12 06:26:10;;;;;;;6.72;4.70;;;;;;;;;;4993465;28;20650;-60
2022/08/12 06:28:37;;;;;;;4.77;4.33;;;;;;;;;;4992502;28;20104;-59
2022/08/12 06:31:05;;;;;;;8.82;4.18;;;;;;;;;;4994055;28;20481;-60
2022/08/12 06:33:31;;;;;;;4.95;3.53;;;;;;;;;;4993959;28;20042;-61
2022/08/12 06:35:58;;;;;;;6.30;4.07;;;;;;;;;;4993732;28;20121;-61
2022/08/12 06:38:25;;;;;;;5.32;3.65;;;;;;;;;;4993730;28;20508;-61
2022/08/12 06:43:43;;;;;;;8.32;4.32;;;;;;;;;;4994086;28;20125;-60
2022/08/12 06:46:10;;;;;;;11.52;4.00;;;;;;;;;;4993479;28;20030;-61
2022/08/12 06:48:36;;;;;;;12.98;3.75;;;;;;;;;;4992898;28;20054;-61
2022/08/12 06:51:03;;;;;;;4.80;3.85;;;;;;;;;;4993600;28;20042;-60
2022/08/12 06:53:32;;;;;;;4.57;3.60;;;;;;;;;;4993541;28;20043;-60
2022/08/12 06:55:59;;;;;;;6.45;3.95;;;;;;;;;;4993516;28;20046;-59
2022/08/12 06:58:26;;;;;;;5.65;3.60;;;;;;;;;;4992465;28;20046;-60
2022/08/12 07:00:52;;;;;;;4.57;3.58;;;;;;;;;;4993626;28;20042;-60
2022/08/12 07:03:27;;;;;;;8.77;3.53;;;;;;;;;;4992522;28;20068;-58
2022/08/12 07:06:00;;;;;;;8.07;3.50;;;;;;;;;;4996923;28;20396;-60
2022/08/12 07:08:30;;;;;;;6.05;3.63;;;;;;;;;;5012722;28;20038;-61
2022/08/12 07:10:58;;;;;;;5.97;3.65;;;;;;;;;;4999668;28;20382;-59
2022/08/12 07:13:27;;;;;;;8.18;4.00;;;;;;;;;;4993136;28;20034;-58
2022/08/12 07:15:55;;;;;;;8.07;3.72;;;;;;;;;;5001880;28;20034;-60
2022/08/12 07:18:31;;;;;;;7.20;3.30;;;;;;;;;;5000061;28;20046;-60
2022/08/12 07:20:59;;;;;;;5.20;3.38;;;;;;;;;;5012918;28;20081;-59
2022/08/12 07:23:26;;;;;;;4.13;3.47;;;;;;;;;;5012572;28;20113;-59
2022/08/12 07:25:53;;;;;;;5.97;3.70;;;;;;;;;;5005101;28;20126;-58
2022/08/12 07:28:23;;;;;;;4.70;3.10;;;;;;;;;;4992803;28;20120;-59
2022/08/12 07:30:51;;;;;;;5.47;3.05;;;;;;;;;;4992697;28;20105;-60
2022/08/12 07:33:21;;;;;;;6.32;3.55;;;;;;;;;;4992677;28;20496;-59
2022/08/12 07:35:47;;;;;;;6.05;3.30;;;;;;;;;;4992947;28;20050;-58
2022/08/12 07:38:23;;;;;;;4.85;3.58;;;;;;;;;;4992362;28;20042;-59
2022/08/12 07:40:50;;;;;;;7.70;3.42;;;;;;;;;;4986764;28;20050;-59
2022/08/12 07:43:16;;;;;;;6.38;3.53;;;;;;;;;;4991896;28;20406;-60
2022/08/12 07:45:42;;;;;;;4.25;3.25;;;;;;;;;;4991705;28;20038;-59
2022/08/12 07:48:08;;;;;;;4.70;3.42;;;;;;;;;;4990053;28;20062;-59
2022/08/12 07:50:34;;;;;;;6.38;3.03;;;;;;;;;;4991058;28;20061;-60
2022/08/12 07:53:00;;;;;;;8.35;3.20;;;;;;;;;;4992166;28;20053;-59
2022/08/12 07:55:27;;;;;;;8.05;3.25;;;;;;;;;;4991390;28;20084;-59
2022/08/12 07:57:58;;;;;;;5.97;3.15;;;;;;;;;;4991549;28;20050;-59
2022/08/12 08:00:25;;;;;;;7.85;3.20;;;;;;;;;;4991063;28;20172;-59
2022/08/12 08:02:53;;;;;;;7.03;3.10;;;;;;;;;;4991614;28;20440;-59
2022/08/12 08:05:19;;;;;;;5.68;2.88;;;;;;;;;;4991944;28;20137;-59
2022/08/12 08:07:45;;;;;;;6.43;3.65;;;;;;;;;;4991753;28;20042;-59
2022/08/12 08:10:12;;;;;;;4.22;3.00;;;;;;;;;;4990258;28;20099;-60
2022/08/12 08:12:55;;;;;;;5.28;3.72;;;;;;;;;;4974134;28;20046;-61
2022/08/12 08:15:22;;;;;;;6.68;2.83;;;;;;;;;;4991462;28;20436;-61
2022/08/12 08:17:55;;;;;;;7.38;3.28;;;;;;;;;;4991214;28;20042;-59
2022/08/12 08:20:27;;;;;;;4.70;3.20;;;;;;;;;;4973148;28;20050;-60
2022/08/12 08:22:53;;;;;;;5.45;2.90;;;;;;;;;;4991804;28;20046;-60
2022/08/12 08:25:20;;;;;;;4.90;3.10;;;;;;;;;;4990805;28;20078;-61
2022/08/12 08:27:46;;;;;;;5.18;2.90;;;;;;;;;;4991564;28;20046;-57
2022/08/12 08:30:13;;;;;;;7.72;3.03;;;;;;;;;;4990639;28;20050;-59
2022/08/12 08:32:39;;;;;;;7.65;2.90;;;;;;;;;;4990483;28;20046;-60
2022/08/12 08:35:09;;;;;;;4.10;2.63;;;;;;;;;;4990995;28;20042;-60
2022/08/12 08:37:35;;;;;;;6.05;2.95;;;;;;;;;;4991190;28;20559;-60
2022/08/12 08:42:35;;;;;;;6.70;2.85;;;;;;;;;;4985546;28;20665;-58
2022/08/12 08:42:47;;;;;;;7.60;3.10;;;;;;;;;;4990329;28;20050;-59
2022/08/12 08:45:14;;;;;;;4.40;2.60;;;;;;;;;;4990894;28;20535;-61
2022/08/12 08:47:47;;;;;;;7.03;3.35;;;;;;;;;;4990296;28;20125;-61
2022/08/12 08:50:14;;;;;;;8.38;4.70;;;;;;;;;;4990740;28;20054;-59
2022/08/12 08:52:44;;;;;;;7.50;2.60;;;;;;;;;;4993909;28;20042;-59
2022/08/12 08:55:12;;;;;;;12.18;5.65;;;;;;;;;;4990286;28;20058;-59
2022/08/12 08:57:44;;;;;;;5.38;3.08;;;;;;;;;;4990823;28;20052;-60
2022/08/12 09:00:10;;;;;;;;;;;;;;;;;;4990713;28;20042;-60
2022/08/12 09:02:36;;;;;;;4.90;2.55;;;;;;;;;;4990051;28;20260;-61
2022/08/12 09:05:02;;;;;;;5.00;2.78;;;;;;;;;;4990964;28;20093;-60
2022/08/12 09:07:28;;;;;;;4.97;2.97;;;;;;;;;;4990618;28;20106;-61
2022/08/12 09:09:56;;;;;;;5.05;3.10;;;;;;;;;;4989930;28;20042;-60
2022/08/12 09:15:07;;;;;;;3.35;2.80;;;;;;;;;;5001071;28;20046;-60
2022/08/12 09:17:33;;;;;;;3.67;2.45;;;;;;;;;;4992223;28;20082;-60
2022/08/12 09:19:59;;;;;;;7.43;2.50;;;;;;;;;;4990048;28;20118;-60
2022/08/12 09:22:26;;;;;;;5.50;2.80;;;;;;;;;;4995211;28;20092;-61
2022/08/12 09:24:52;;;;;;;4.07;2.55;;;;;;;;;;4998305;28;20101;-59
2022/08/12 09:27:18;;;;;;;6.03;2.83;;;;;;;;;;4990887;28;20058;-59
2022/08/12 09:29:44;;;;;;;4.15;3.00;;;;;;;;;;4991041;28;20126;-58
2022/08/12 09:32:12;;;;;;;4.07;2.67;;;;;;;;;;4990559;28;20513;-59
2022/08/12 09:34:38;;;;;;;8.85;2.83;;;;;;;;;;4994096;28;20887;-61
2022/08/12 09:37:04;;;;;;;4.28;2.40;;;;;;;;;;5003501;28;20121;-60
2022/08/12 09:39:30;;;;;;;10.48;2.97;;;;;;;;;;4990220;28;20062;-62
2022/08/12 09:47:44;;;;;;;5.78;2.42;;;;;;;;;;4984791;28;20081;-62
2022/08/12 09:50:10;;;;;;;5.65;2.72;;;;;;;;;;4990322;28;20050;-59
2022/08/12 09:52:36;;;;;;;4.13;2.60;;;;;;;;;;4990969;28;20351;-60
2022/08/12 09:55:04;;;;;;;5.30;2.58;;;;;;;;;;4990139;28;20062;-61
2022/08/12 09:57:30;;;;;;;6.85;3.03;;;;;;;;;;4990606;28;20042;-61
2022/08/12 09:59:56;;;;;;;9.57;5.72;;;;;;;;;;4990258;28;20408;-61
2022/08/12 10:02:23;;;;;;;5.38;2.95;;;;;;;;;;4992785;28;20054;-61
2022/08/12 10:04:49;;;;;;;4.13;2.95;;;;;;;;;;5006538;28;20038;-60
2022/08/12 10:07:15;;;;;;;4.47;2.80;;;;;;;;;;4990084;28;20049;-62
2022/08/12 10:09:41;;;;;;;6.43;2.53;;;;;;;;;;4989808;28;20105;-61
2022/08/12 10:14:52;;;;;;;6.05;4.30;;;;;;;;;;4990405;28;20042;-60
2022/08/12 10:17:21;;;;;;;4.90;2.72;;;;;;;;;;4989884;28;20113;-59
2022/08/12 10:19:48;;;;;;;8.02;4.05;;;;;;;;;;4990411;28;20053;-60
2022/08/12 10:22:14;;;;;;;9.27;3.00;;;;;;;;;;4989944;28;20437;-60
2022/08/12 10:24:41;;;;;;;5.78;2.55;;;;;;;;;;4989493;28;20046;-60
2022/08/12 10:29:52;;;;;;;10.27;5.63;;;;;;;;;;4989850;28;20047;-61
2022/08/12 10:32:22;;;;;;;3.85;2.20;;;;;;;;;;4989897;28;20049;-60
2022/08/12 10:34:49;;;;;;;6.13;2.30;;;;;;;;;;4993802;28;20049;-61
2022/08/12 10:37:15;;;;;;;5.30;2.30;;;;;;;;;;4975568;28;20125;-59
2022/08/12 10:39:42;;;;;;;4.65;2.50;;;;;;;;;;4992793;28;20042;-60
2022/08/12 10:44:59;;;;;;;8.13;2.38;;;;;;;;;;5009561;28;20401;-61
2022/08/12 10:47:25;;;;;;;3.50;2.08;;;;;;;;;;4992876;28;20519;-60
2022/08/12 10:49:51;;;;;;;2.97;1.83;;;;;;;;;;4993251;28;20056;-59
2022/08/12 10:52:17;;;;;;;4.28;2.08;;;;;;;;;;4993117;28;20051;-61
2022/08/12 10:54:45;;;;;;;3.70;2.10;;;;;;;;;;5004905;28;20452;-61
2022/08/12 10:57:11;;;;;;;4.10;2.00;;;;;;;;;;4992732;28;20357;-60
2022/08/12 10:59:37;;;;;;;6.80;2.50;;;;;;;;;;4992896;28;20469;-60
2022/08/12 11:02:03;;;;;;;4.30;2.08;;;;;;;;;;4992904;28;20125;-60
2022/08/12 11:04:30;;;;;;;2.95;1.80;;;;;;;;;;4992554;28;20039;-61
2022/08/12 11:06:56;;;;;;;2.60;1.83;;;;;;;;;;4988019;28;20035;-60
2022/08/12 11:09:27;;;;;;;2.70;1.80;;;;;;;;;;4992972;28;20464;-60
2022/08/12 11:11:54;;;;;;;1.77;1.67;;;;;;;;;;4992802;28;20054;-60
2022/08/12 11:14:33;;;;;;;3.60;2.10;;;;;;;;;;4993206;28;20118;-61
2022/08/12 11:17:11;;;;;;;6.03;2.08;;;;;;;;;;4974727;28;20046;-61
2022/08/12 11:19:38;;;;;;;5.20;2.45;;;;;;;;;;4992689;28;20058;-61
2022/08/12 11:22:05;;;;;;;8.43;2.10;;;;;;;;;;4992349;28;20034;-60
2022/08/12 11:24:32;;;;;;;3.88;2.03;;;;;;;;;;4993449;28;20074;-60
2022/08/12 11:26:59;;;;;;;5.70;2.05;;;;;;;;;;4992376;28;20138;-61
2022/08/12 11:29:26;;;;;;;3.75;1.83;;;;;;;;;;4992853;28;20081;-62
2022/08/12 11:31:52;;;;;;;3.13;1.90;;;;;;;;;;4992293;28;20042;-61
2022/08/12 11:34:19;;;;;;;2.95;2.17;;;;;;;;;;4992712;28;20048;-60
2022/08/12 11:37:06;;;;;;;6.72;2.28;;;;;;;;;;4992615;28;20057;-58
2022/08/12 11:39:32;;;;;;;3.53;2.08;;;;;;;;;;5002085;28;20049;-61
2022/08/12 11:41:59;;;;;;;4.45;2.00;;;;;;;;;;4992096;28;20049;-61
2022/08/12 11:44:25;;;;;;;3.95;1.90;;;;;;;;;;4992097;28;20054;-61
2022/08/12 11:46:53;;;;;;;5.05;2.33;;;;;;;;;;4990885;28;20074;-61
2022/08/12 11:49:22;;;;;;;3.83;2.00;;;;;;;;;;4991741;28;20069;-61
2022/08/12 11:51:48;;;;;;;3.80;2.10;;;;;;;;;;4992216;28;20050;-61
2022/08/12 11:54:14;;;;;;;3.85;2.10;;;;;;;;;;5003478;28;20076;-61
2022/08/12 11:56:41;;;;;;;6.07;1.90;;;;;;;;;;4992666;28;20042;-61
2022/08/12 11:59:07;;;;;;;3.35;2.08;;;;;;;;;;5004702;28;20034;-61
2022/08/12 12:01:33;;;;;;;5.03;2.17;;;;;;;;;;4991315;28;20082;-61
2022/08/12 12:03:59;;;;;;;6.65;2.25;;;;;;;;;;4991693;28;20038;-59
2022/08/12 12:06:26;;;;;;;7.15;2.30;;;;;;;;;;4991948;28;20050;-59
2022/08/12 12:08:52;;;;;;;3.63;2.08;;;;;;;;;;4991576;28;20046;-60
2022/08/12 12:11:18;;;;;;;4.25;1.92;;;;;;;;;;5004278;28;20054;-59
2022/08/12 12:13:45;;;;;;;4.18;2.30;;;;;;;;;;4991902;28;20034;-60
2022/08/12 12:16:11;;;;;;;4.63;2.63;;;;;;;;;;4990996;28;20038;-60
2022/08/12 12:18:38;;;;;;;3.90;2.80;;;;;;;;;;4991230;28;20453;-60
2022/08/12 12:21:06;;;;;;;2.85;2.15;;;;;;;;;;4991843;28;20060;-60
2022/08/12 12:23:33;;;;;;;3.22;2.45;;;;;;;;;;4999936;28;20076;-60
2022/08/12 12:25:59;;;;;;;4.55;2.20;;;;;;;;;;5002260;28;20049;-60
2022/08/12 12:28:25;;;;;;;5.28;2.00;;;;;;;;;;5006745;28;20069;-60
2022/08/12 12:30:51;;;;;;;7.70;2.70;;;;;;;;;;4994687;28;20043;-59
2022/08/12 12:33:19;;;;;;;6.47;1.80;;;;;;;;;;4991439;28;20050;-60
2022/08/12 12:35:45;;;;;;;5.30;1.90;;;;;;;;;;4991251;28;20628;-61
2022/08/12 12:38:12;;;;;;;6.30;2.00;;;;;;;;;;4990243;28;20046;-60
2022/08/12 12:40:40;;;;;;;3.55;1.90;;;;;;;;;;4991321;28;20038;-61
2022/08/12 12:43:06;;;;;;;4.97;2.00;;;;;;;;;;4991313;28;20042;-61
2022/08/12 12:45:33;;;;;;;3.55;2.40;;;;;;;;;;4990750;28;20046;-60
2022/08/12 12:47:59;;;;;;;7.03;2.30;;;;;;;;;;4989994;28;20549;-60
2022/08/12 12:50:27;;;;;;;3.55;1.83;;;;;;;;;;4973361;28;20058;-60
2022/08/12 12:52:53;;;;;;;6.28;2.20;;;;;;;;;;4991057;28;20482;-59
2022/08/12 12:55:19;;;;;;;5.53;2.15;;;;;;;;;;4990724;28;20469;-60
2022/08/12 12:57:45;;;;;;;7.15;1.60;;;;;;;;;;4990622;28;20135;-59
2022/08/12 13:00:16;;;;;;;3.75;1.90;;;;;;;;;;4990868;28;20042;-60
2022/08/12 13:02:44;;;;;;;3.93;1.90;;;;;;;;;;4991154;28;20042;-60
2022/08/12 13:05:11;;;;;;;6.65;2.03;;;;;;;;;;4990767;28;20038;-59
2022/08/12 13:07:39;;;;;;;4.25;2.05;;;;;;;;;;4990583;28;20259;-60
2022/08/12 13:10:05;;;;;;;5.07;2.13;;;;;;;;;;4991389;28;20038;-59
2022/08/12 13:12:33;;;;;;;4.03;1.85;;;;;;;;;;4991465;28;20062;-60
2022/08/12 13:15:01;;;;;;;9.20;2.25;;;;;;;;;;4991116;28;20046;-60
2022/08/12 13:17:30;;;;;;;3.35;2.10;;;;;;;;;;4991194;28;20054;-60
2022/08/12 13:19:56;;;;;;;3.38;1.95;;;;;;;;;;4991044;28;20046;-60
2022/08/12 13:22:22;;;;;;;4.75;1.90;;;;;;;;;;4991100;28;20093;-60
2022/08/12 13:24:52;;;;;;;3.33;2.25;;;;;;;;;;4991237;28;20038;-60
2022/08/12 13:27:19;;;;;;;6.03;2.45;;;;;;;;;;4990930;28;20089;-60
2022/08/12 13:29:45;;;;;;;2.45;2.00;;;;;;;;;;4973255;28;20356;-60
2022/08/12 13:32:12;;;;;;;3.55;1.90;;;;;;;;;;4990936;28;20043;-60
2022/08/12 13:34:38;;;;;;;5.05;1.90;;;;;;;;;;4991162;28;20042;-60
2022/08/12 13:37:04;;;;;;;4.05;1.80;;;;;;;;;;4990461;28;20034;-60
2022/08/12 13:39:30;;;;;;;6.65;2.15;;;;;;;;;;4991155;28;20038;-60
2022/08/12 13:41:56;;;;;;;5.47;1.77;;;;;;;;;;4991294;28;20046;-60
2022/08/12 13:44:25;;;;;;;7.18;2.55;;;;;;;;;;4990707;28;20042;-60
2022/08/12 13:46:51;;;;;;;4.10;1.75;;;;;;;;;;4990806;28;20046;-60
2022/08/12 13:49:17;;;;;;;8.43;2.20;;;;;;;;;;4990789;28;20046;-60
2022/08/12 13:51:52;;;;;;;5.05;2.20;;;;;;;;;;4972946;28;20046;-60
2022/08/12 13:54:19;;;;;;;3.15;1.83;;;;;;;;;;4973608;28;20043;-60
2022/08/12 13:56:45;;;;;;;2.25;2.00;;;;;;;;;;4990926;28;20117;-60
2022/08/12 13:59:12;;;;;;;4.03;2.00;;;;;;;;;;5006970;28;20125;-60
2022/08/12 14:01:40;;;;;;;6.00;2.10;;;;;;;;;;5010255;28;20112;-60
2022/08/12 14:04:07;;;;;;;5.63;2.10;;;;;;;;;;5010172;28;20096;-60
2022/08/12 14:06:33;;;;;;;3.22;1.85;;;;;;;;;;5009827;28;20053;-60
2022/08/12 14:08:59;;;;;;;5.85;2.10;;;;;;;;;;5013599;28;20096;-60
2022/08/12 14:11:25;;;;;;;7.25;2.00;;;;;;;;;;5014194;28;20038;-60
2022/08/12 14:13:51;;;;;;;6.78;2.00;;;;;;;;;;5013723;28;20045;-60
2022/08/12 14:16:17;;;;;;;8.30;2.10;;;;;;;;;;5014233;28;20053;-60
2022/08/12 14:18:44;;;;;;;6.35;2.28;;;;;;;;;;5013782;28;20400;-60
2022/08/12 14:21:11;;;;;;;3.20;2.15;;;;;;;;;;5013402;28;20049;-60
2022/08/12 14:23:38;;;;;;;2.38;2.10;;;;;;;;;;5014071;28;20045;-60
2022/08/12 14:26:05;;;;;;;2.20;1.80;;;;;;;;;;5004396;28;20386;-60
2022/08/12 14:28:33;;;;;;;3.95;1.77;;;;;;;;;;4993246;28;20031;-60
2022/08/12 14:31:04;;;;;;;4.00;1.92;;;;;;;;;;4993576;28;20529;-60
2022/08/12 14:33:34;;;;;;;2.45;1.83;;;;;;;;;;4993144;28;20049;-60
2022/08/12 14:36:01;;;;;;;3.05;2.00;;;;;;;;;;4993102;28;20062;-60
2022/08/12 14:38:29;;;;;;;3.42;1.90;;;;;;;;;;4993529;28;20041;-60
2022/08/12 14:41:00;;;;;;;3.60;2.20;;;;;;;;;;4993736;28;20034;-60
2022/08/12 14:43:32;;;;;;;;;;;;;;;;;;4993643;28;20113;-60
2022/08/12 14:46:01;;;;;;;4.05;2.03;;;;;;;;;;4994029;28;19926;-60
2022/08/12 14:48:28;;;;;;;5.20;2.38;;;;;;;;;;4993683;28;20061;-60
2022/08/12 14:50:54;;;;;;;5.13;2.17;;;;;;;;;;4975657;28;20062;-60
2022/08/12 14:53:20;;;;;;;4.70;1.95;;;;;;;;;;4993898;28;20053;-60
2022/08/12 14:55:48;;;;;;;2.78;1.98;;;;;;;;;;4993774;28;20590;-60
2022/08/12 14:58:15;;;;;;;2.38;1.77;;;;;;;;;;4993230;28;20121;-60
2022/08/12 15:03:27;;;;;;;2.13;1.90;;;;;;;;;;4993769;28;20445;-60
2022/08/12 15:05:55;;;;;;;3.75;2.10;;;;;;;;;;4993323;28;20081;-60
2022/08/12 15:08:23;;;;;;;2.50;1.83;;;;;;;;;;4993551;28;20125;-60
2022/08/12 15:10:49;;;;;;;5.78;2.08;;;;;;;;;;4993510;28;20045;-60
2022/08/12 15:13:17;;;;;;;4.05;2.00;;;;;;;;;;4993232;28;20378;-60
2022/08/12 15:15:44;;;;;;;4.15;2.17;;;;;;;;;;4993671;28;20351;-60
2022/08/12 15:18:15;;;;;;;3.92;2.20;;;;;;;;;;4992669;28;20039;-60
2022/08/12 15:20:41;;;;;;;;;;;;;;;;;;4993371;28;20389;-60
2022/08/12 15:23:10;;;;;;;6.55;1.95;;;;;;;;;;4993398;28;20272;-60
2022/08/12 15:25:39;;;;;;;4.55;2.35;;;;;;;;;;4992890;28;20452;-60
2022/08/12 15:28:06;;;;;;;3.53;2.10;;;;;;;;;;4992835;28;20066;-60
2022/08/12 15:30:36;;;;;;;5.20;1.95;;;;;;;;;;4993057;28;20042;-60
2022/08/12 15:33:03;;;;;;;5.53;2.23;;;;;;;;;;4992919;28;20114;-60
2022/08/12 15:35:29;;;;;;;2.90;1.83;;;;;;;;;;4992817;28;20485;-60
2022/08/12 15:37:57;;;;;;;3.90;1.90;;;;;;;;;;4992813;28;20040;-60
2022/08/12 15:40:23;;;;;;;8.23;2.25;;;;;;;;;;4993035;28;20038;-60
2022/08/12 15:42:49;;;;;;;2.55;1.95;;;;;;;;;;4974897;28;20039;-60
2022/08/12 15:45:15;;;;;;;5.18;2.20;;;;;;;;;;4993036;28;20147;-60
2022/08/12 15:47:41;;;;;;;2.25;2.05;;;;;;;;;;4992622;28;20046;-60
2022/08/12 15:50:08;;;;;;;4.40;2.15;;;;;;;;;;4992414;28;20046;-60
2022/08/12 15:52:34;;;;;;;4.00;2.25;;;;;;;;;;4992865;28;20047;-60
2022/08/12 15:55:00;;;;;;;4.45;2.38;;;;;;;;;;4992464;28;20377;-60
2022/08/12 15:57:26;;;;;;;4.13;2.45;;;;;;;;;;4992285;28;20045;-59
2022/08/12 15:59:52;;;;;;;5.57;2.60;;;;;;;;;;4992720;28;20034;-59
2022/08/12 16:02:19;;;;;;;5.20;2.45;;;;;;;;;;4992779;28;20048;-59
2022/08/12 16:04:49;;;;;;;4.80;2.20;;;;;;;;;;4992074;28;20547;-60
2022/08/12 16:07:19;;;;;;;10.43;2.20;;;;;;;;;;4992506;28;20100;-59
2022/08/12 16:09:45;;;;;;;5.75;2.15;;;;;;;;;;4992618;28;20524;-59
2022/08/12 16:12:12;;;;;;;4.50;2.42;;;;;;;;;;4991911;28;20046;-60
2022/08/12 16:14:38;;;;;;;5.32;2.67;;;;;;;;;;4992389;28;20074;-59
2022/08/12 16:17:04;;;;;;;5.47;2.20;;;;;;;;;;4992014;28;20069;-60
2022/08/12 16:19:32;;;;;;;4.50;2.20;;;;;;;;;;4991868;28;20038;-60
2022/08/12 16:21:58;;;;;;;6.53;2.70;;;;;;;;;;4992329;28;20402;-60
2022/08/12 16:24:24;;;;;;;5.15;2.00;;;;;;;;;;4992273;28;20629;-60
2022/08/12 16:26:51;;;;;;;3.70;2.20;;;;;;;;;;4991428;28;20046;-59
2022/08/12 16:29:23;;;;;;;6.18;1.80;;;;;;;;;;4991997;28;20101;-59
2022/08/12 16:31:49;;;;;;;5.70;2.72;;;;;;;;;;4991421;28;20053;-60
2022/08/12 16:34:15;;;;;;;5.72;2.20;;;;;;;;;;4991664;28;20646;-60
2022/08/12 16:36:43;;;;;;;6.22;2.20;;;;;;;;;;4991897;28;20046;-59